createdAt,value
2022-09-18T09:54:24.497Z,2.53
2022-09-18T09:59:39.771Z,2.70
2022-09-18T10:05:07.990Z,2.17
2022-09-18T10:10:23.507Z,2.92
2022-09-18T10:15:38.637Z,2.25
2022-09-18T10:20:48.386Z,2.55
2022-09-18T10:25:59.708Z,1.73
2022-09-18T10:31:12.444Z,2.38
2022-09-18T10:36:28.716Z,2.10
2022-09-18T10:41:38.142Z,3.05
2022-09-18T10:46:59.268Z,2.85
2022-09-18T10:52:36.094Z,3.47
2022-09-18T10:57:48.780Z,1.80
2022-09-18T11:03:01.834Z,2.92
2022-09-18T11:08:19.462Z,2.30
2022-09-18T11:13:28.794Z,3.22
2022-09-18T11:18:36.880Z,2.63
2022-09-18T11:23:44.208Z,2.50
2022-09-18T11:29:06.614Z,4.32
2022-09-18T11:34:26.870Z,2.33
2022-09-18T11:39:43.120Z,3.70
2022-09-18T11:44:51.650Z,1.90
2022-09-18T11:50:07.011Z,2.33
2022-09-18T11:55:21.835Z,3.25
2022-09-18T12:00:31.761Z,1.83
2022-09-18T12:05:52.578Z,2.78
2022-09-18T12:16:17.570Z,4.18
2022-09-18T12:21:44.666Z,1.38
2022-09-18T12:27:04.169Z,1.25
2022-09-18T12:32:24.668Z,1.15
2022-09-18T12:37:55.677Z,0.98
2022-09-18T12:43:18.722Z,0.63
2022-09-18T12:48:41.197Z,0.98
2022-09-18T12:53:56.665Z,1.73
2022-09-18T12:59:24.305Z,0.52
2022-09-18T13:04:32.521Z,1.45
2022-09-18T13:09:46.253Z,1.70
2022-09-18T13:14:56.903Z,0.50
2022-09-18T13:20:08.646Z,1.20
2022-09-18T13:25:26.070Z,0.70
2022-09-18T13:30:32.278Z,0.82
2022-09-18T13:35:40.436Z,0.57
2022-09-18T13:40:49.836Z,1.02
2022-09-18T13:45:56.715Z,1.85
2022-09-18T13:51:04.286Z,0.70
2022-09-18T13:56:12.951Z,0.63
2022-09-18T14:01:58.522Z,2.22
2022-09-18T14:07:03.444Z,1.05
2022-09-18T14:12:18.097Z,0.40
2022-09-18T14:17:23.207Z,0.63
2022-09-18T14:22:32.671Z,1.13
2022-09-18T14:27:53.646Z,0.82
2022-09-18T14:33:18.869Z,1.23
2022-09-18T14:38:30.511Z,1.20
2022-09-18T14:43:40.632Z,0.80
2022-09-18T14:48:45.516Z,1.02
2022-09-18T14:53:53.048Z,0.10
2022-09-18T14:59:03.306Z,0.43
2022-09-18T15:04:15.465Z,1.02
2022-09-18T15:09:28.599Z,0.10
2022-09-18T15:14:43.951Z,0.63
2022-09-18T15:20:01.251Z,0.43
2022-09-18T15:25:06.340Z,0.40
2022-09-18T15:30:20.003Z,0.10
2022-09-18T15:35:26.485Z,0.20
2022-09-18T15:40:34.141Z,0.43
2022-09-18T15:45:41.760Z,0.20
2022-09-18T15:50:46.535Z,0.40
2022-09-18T15:55:58.241Z,0.45
2022-09-18T16:06:24.113Z,0.63
2022-09-18T16:11:44.692Z,0.50
2022-09-18T16:16:52.139Z,0.85
2022-09-18T16:21:57.355Z,0.82
2022-09-18T16:27:07.375Z,0.20
2022-09-18T16:32:15.572Z,0.50
2022-09-18T16:37:23.324Z,0.25
2022-09-18T16:42:28.036Z,0.38
2022-09-18T16:47:35.417Z,0.43
2022-09-18T16:52:40.363Z,0.38
2022-09-18T16:57:45.497Z,1.05
2022-09-18T17:02:54.100Z,0.30
2022-09-18T17:07:59.066Z,0.30
2022-09-18T17:13:04.150Z,0.20
2022-09-18T17:18:11.982Z,0.68
2022-09-18T17:23:16.933Z,0.60
2022-09-18T17:28:21.928Z,0.30
2022-09-18T17:33:29.346Z,0.43
2022-09-18T17:38:35.817Z,0.20
2022-09-18T17:43:41.460Z,0.50
2022-09-18T17:48:49.318Z,0.88
2022-09-18T17:54:00.510Z,0.80
2022-09-18T17:59:07.520Z,0.25
2022-09-18T18:04:15.859Z,0.45
2022-09-18T18:09:20.420Z,0.75
2022-09-18T18:14:25.927Z,0.43
2022-09-18T18:19:33.191Z,1.35
2022-09-18T18:24:38.528Z,0.93
2022-09-18T18:29:44.036Z,1.15
2022-09-18T18:34:51.207Z,0.40
2022-09-18T18:39:55.808Z,0.50
2022-09-18T18:45:01.366Z,0.75
2022-09-18T18:50:12.515Z,0.40
2022-09-18T18:55:17.954Z,0.30
2022-09-18T19:00:27.361Z,1.58
2022-09-18T19:05:35.196Z,1.05
2022-09-18T19:10:39.703Z,0.45
2022-09-18T19:15:44.259Z,1.38
2022-09-18T19:20:53.735Z,0.28
2022-09-18T19:26:00.139Z,1.48
2022-09-18T19:31:06.860Z,0.73
2022-09-18T19:36:14.299Z,0.68
2022-09-18T19:41:24.641Z,0.60
2022-09-18T19:46:40.728Z,0.77
2022-09-18T19:51:49.319Z,0.73
2022-09-18T19:56:53.867Z,1.65
2022-09-18T20:01:58.792Z,1.48
2022-09-18T20:07:06.182Z,1.52
2022-09-18T20:12:12.806Z,1.52
2022-09-18T20:17:17.403Z,1.27
2022-09-18T20:22:24.564Z,1.23
2022-09-18T20:27:29.097Z,1.15
2022-09-18T20:32:33.663Z,1.60
2022-09-18T20:37:40.868Z,2.60
2022-09-18T20:42:45.488Z,1.45
2022-09-18T20:47:49.919Z,1.17
2022-09-18T20:53:06.204Z,1.08
2022-09-18T20:58:11.421Z,2.90
2022-09-18T21:03:17.570Z,2.60
2022-09-18T21:08:25.980Z,1.80
2022-09-18T21:13:31.480Z,1.33
2022-09-18T21:18:37.567Z,1.85
2022-09-18T21:23:58.581Z,1.45
2022-09-18T21:29:05.247Z,2.77
2022-09-18T21:34:09.684Z,1.70
2022-09-18T21:39:17.155Z,1.00
2022-09-18T21:44:27.031Z,2.90
2022-09-18T21:49:32.930Z,1.65
2022-09-18T21:54:40.035Z,1.60
2022-09-18T21:59:44.779Z,1.45
2022-09-18T22:04:49.386Z,2.00
2022-09-18T22:09:56.816Z,1.77
2022-09-18T22:15:01.272Z,2.50
2022-09-18T22:20:07.233Z,1.48
2022-09-18T22:25:15.448Z,1.00
2022-09-18T22:30:20.200Z,4.32
2022-09-18T22:35:24.628Z,1.60
2022-09-18T22:40:31.645Z,1.67
2022-09-18T22:45:36.141Z,2.58
2022-09-18T22:50:40.834Z,3.22
2022-09-18T22:55:48.180Z,4.35
2022-09-18T23:00:52.563Z,1.70
2022-09-18T23:05:56.931Z,2.88
2022-09-18T23:11:08.614Z,2.15
2022-09-18T23:16:15.169Z,1.88
2022-09-18T23:21:19.998Z,2.00
2022-09-18T23:26:31.127Z,1.70
2022-09-18T23:31:37.715Z,1.02
2022-09-18T23:36:44.808Z,2.15
2022-09-18T23:41:52.280Z,2.08
2022-09-18T23:46:57.501Z,1.33
2022-09-18T23:52:02.711Z,1.40
2022-09-18T23:57:09.969Z,2.25
